createdAt,value
2023-03-19T00:00:40.919Z,11.30
2023-03-19T00:01:46.460Z,11.30
2023-03-19T00:02:51.278Z,11.30
2023-03-19T00:03:54.683Z,11.20
2023-03-19T00:04:57.856Z,11.30
2023-03-19T00:06:00.411Z,11.30
2023-03-19T00:07:03.407Z,11.30
2023-03-19T00:08:05.818Z,11.30
2023-03-19T00:09:10.427Z,11.30
2023-03-19T00:10:12.904Z,11.30
2023-03-19T00:11:16.249Z,11.30
2023-03-19T00:12:18.478Z,11.30
2023-03-19T00:13:21.642Z,11.20
2023-03-19T00:14:24.719Z,11.20
2023-03-19T00:15:27.773Z,11.20
2023-03-19T00:16:30.612Z,11.20
2023-03-19T00:17:33.614Z,11.10
2023-03-19T00:18:35.635Z,11.10
2023-03-19T00:19:39.245Z,11.10
2023-03-19T00:20:41.555Z,11.10
2023-03-19T00:21:44.606Z,11.10
2023-03-19T00:22:46.747Z,11.10
2023-03-19T00:23:49.979Z,11.00
2023-03-19T00:24:54.305Z,11.00
2023-03-19T00:25:56.354Z,11.00
2023-03-19T00:26:59.564Z,11.00
2023-03-19T00:28:01.899Z,11.10
2023-03-19T00:29:06.183Z,11.10
2023-03-19T00:30:09.657Z,11.10
2023-03-19T00:31:15.322Z,11.10
2023-03-19T00:32:17.601Z,11.10
2023-03-19T00:33:21.254Z,11.10
2023-03-19T00:34:23.688Z,11.10
2023-03-19T00:35:27.010Z,11.10
2023-03-19T00:36:30.127Z,11.10
2023-03-19T00:37:34.406Z,11.10
2023-03-19T00:38:36.979Z,11.20
2023-03-19T00:39:40.184Z,11.20
2023-03-19T00:40:43.675Z,11.20
2023-03-19T00:41:50.451Z,11.30
2023-03-19T00:42:52.619Z,11.30
2023-03-19T00:43:56.506Z,11.40
2023-03-19T00:44:58.743Z,11.60
2023-03-19T00:46:02.062Z,11.70
2023-03-19T00:47:06.868Z,11.80
2023-03-19T00:48:09.340Z,12.00
2023-03-19T00:49:12.593Z,12.10
2023-03-19T00:50:14.714Z,12.30
2023-03-19T00:51:18.567Z,12.30
2023-03-19T00:52:20.805Z,12.30
2023-03-19T00:53:23.840Z,12.30
2023-03-19T00:54:26.079Z,12.30
2023-03-19T00:55:29.091Z,12.30
2023-03-19T00:56:32.480Z,12.30
2023-03-19T00:57:35.702Z,12.20
2023-03-19T00:58:38.793Z,12.20
2023-03-19T00:59:42.040Z,12.20
2023-03-19T01:00:44.209Z,12.20
2023-03-19T01:01:47.298Z,12.10
2023-03-19T01:02:49.422Z,12.10
2023-03-19T01:03:52.794Z,12.00
2023-03-19T01:04:54.799Z,12.00
2023-03-19T01:05:59.074Z,11.90
2023-03-19T01:08:03.589Z,11.80
2023-03-19T01:09:05.713Z,11.70
2023-03-19T01:10:10.012Z,11.70
2023-03-19T01:11:15.039Z,11.60
2023-03-19T01:12:19.929Z,11.60
2023-03-19T01:13:22.500Z,11.50
2023-03-19T01:14:26.135Z,11.50
2023-03-19T01:15:28.401Z,11.40
2023-03-19T01:16:31.698Z,11.40
2023-03-19T01:17:33.878Z,11.30
2023-03-19T01:18:37.258Z,11.30
2023-03-19T01:19:39.651Z,11.30
2023-03-19T01:20:43.201Z,11.20
2023-03-19T01:21:46.548Z,11.20
2023-03-19T01:22:53.150Z,11.10
2023-03-19T01:23:55.851Z,11.10
2023-03-19T01:25:00.110Z,11.10
2023-03-19T01:26:03.011Z,11.10
2023-03-19T01:27:06.813Z,11.10
2023-03-19T01:28:11.927Z,11.10
2023-03-19T01:29:15.938Z,11.10
2023-03-19T01:30:18.326Z,11.10
2023-03-19T01:31:39.930Z,11.10
2023-03-19T01:32:56.978Z,11.10
2023-03-19T01:34:11.411Z,11.10
2023-03-19T01:35:22.319Z,11.10
2023-03-19T01:36:25.693Z,11.10
2023-03-19T01:37:34.242Z,11.10
2023-03-19T01:38:37.500Z,11.10
2023-03-19T01:39:42.864Z,11.10
2023-03-19T01:40:50.776Z,11.10
2023-03-19T01:41:52.999Z,11.10
2023-03-19T01:43:18.356Z,11.10
2023-03-19T01:44:34.518Z,11.00
2023-03-19T01:45:59.961Z,11.00
2023-03-19T01:47:38.809Z,11.00
2023-03-19T01:48:49.965Z,11.00
2023-03-19T01:49:56.738Z,11.00
2023-03-19T01:51:00.030Z,11.00
2023-03-19T01:52:24.637Z,11.00
2023-03-19T01:53:46.358Z,11.00
2023-03-19T01:55:28.395Z,11.00
2023-03-19T01:56:55.584Z,11.00
2023-03-19T01:58:04.977Z,11.00
2023-03-19T01:59:22.157Z,11.00
2023-03-19T02:00:39.075Z,11.00
2023-03-19T02:01:48.440Z,11.00
2023-03-19T02:02:53.974Z,11.00
2023-03-19T02:04:27.821Z,11.00
2023-03-19T02:05:31.064Z,11.00
2023-03-19T02:06:41.592Z,11.00
2023-03-19T02:07:46.023Z,10.90
2023-03-19T02:08:50.597Z,10.90
2023-03-19T02:09:53.126Z,10.90
2023-03-19T02:11:00.241Z,10.90
2023-03-19T02:12:02.585Z,10.90
2023-03-19T02:13:06.512Z,10.80
2023-03-19T02:14:09.866Z,10.80
2023-03-19T02:15:14.863Z,10.80
2023-03-19T02:16:17.049Z,10.90
2023-03-19T02:17:21.580Z,10.80
2023-03-19T02:18:25.314Z,10.90
2023-03-19T02:19:36.588Z,10.90
2023-03-19T02:20:47.546Z,10.90
2023-03-19T02:21:52.401Z,11.00
2023-03-19T02:23:02.820Z,11.00
2023-03-19T02:24:13.938Z,11.00
2023-03-19T02:25:31.060Z,11.10
2023-03-19T02:26:37.105Z,11.10
2023-03-19T02:27:39.644Z,11.10
2023-03-19T02:28:44.981Z,11.10
2023-03-19T02:29:49.593Z,11.10
2023-03-19T02:30:53.949Z,11.10
2023-03-19T02:31:56.963Z,11.10
2023-03-19T02:32:59.249Z,11.20
2023-03-19T02:34:04.067Z,11.10
2023-03-19T02:35:06.797Z,11.20
2023-03-19T02:36:14.460Z,11.20
2023-03-19T02:37:20.727Z,11.20
2023-03-19T02:38:26.168Z,11.20
2023-03-19T02:39:34.545Z,11.20
2023-03-19T02:40:42.911Z,11.20
2023-03-19T02:41:47.119Z,11.20
2023-03-19T02:42:50.581Z,11.20
2023-03-19T02:43:54.862Z,11.20
2023-03-19T02:44:57.334Z,11.20
2023-03-19T02:46:01.563Z,11.30
2023-03-19T02:47:04.363Z,11.30
2023-03-19T02:48:07.849Z,11.20
2023-03-19T02:49:10.078Z,11.30
2023-03-19T02:50:13.100Z,11.30
2023-03-19T02:51:15.540Z,11.30
2023-03-19T02:52:18.937Z,11.30
2023-03-19T02:53:21.573Z,11.20
2023-03-19T02:54:24.699Z,11.20
2023-03-19T02:55:27.710Z,11.20
2023-03-19T02:56:29.937Z,11.10
2023-03-19T02:57:34.328Z,11.10
2023-03-19T02:58:36.467Z,11.10
2023-03-19T02:59:39.934Z,11.10
2023-03-19T03:00:42.972Z,11.00
2023-03-19T03:01:46.095Z,11.00
2023-03-19T03:02:48.306Z,11.00
2023-03-19T03:03:51.387Z,10.90
2023-03-19T03:04:53.530Z,10.90
2023-03-19T03:05:56.596Z,10.80
2023-03-19T03:06:59.040Z,10.80
2023-03-19T03:08:03.006Z,10.80
2023-03-19T03:09:05.071Z,10.80
2023-03-19T03:10:08.820Z,10.80
2023-03-19T03:11:11.013Z,10.80
2023-03-19T03:12:14.036Z,10.80
2023-03-19T03:13:17.709Z,10.80
2023-03-19T03:14:20.762Z,10.80
2023-03-19T03:15:22.935Z,10.80
2023-03-19T03:16:27.214Z,10.80
2023-03-19T03:17:29.382Z,10.80
2023-03-19T03:18:33.710Z,10.80
2023-03-19T03:19:36.086Z,10.80
2023-03-19T03:20:39.452Z,10.80
2023-03-19T03:21:41.517Z,10.80
2023-03-19T03:22:45.315Z,10.80
2023-03-19T03:23:48.158Z,10.80
2023-03-19T03:24:51.309Z,10.90
2023-03-19T03:25:53.402Z,10.90
2023-03-19T03:26:57.248Z,10.90
2023-03-19T03:27:59.883Z,10.90
2023-03-19T03:29:04.968Z,10.90
2023-03-19T03:30:10.650Z,11.00
2023-03-19T03:31:14.230Z,11.00
2023-03-19T03:32:16.614Z,11.00
2023-03-19T03:33:19.714Z,11.00
2023-03-19T03:34:21.825Z,10.90
2023-03-19T03:35:24.922Z,11.00
2023-03-19T03:36:27.469Z,10.90
2023-03-19T03:37:30.490Z,10.90
2023-03-19T03:38:32.787Z,10.90
2023-03-19T03:39:36.127Z,10.90
2023-03-19T03:40:38.306Z,10.90
2023-03-19T03:41:42.377Z,10.90
2023-03-19T03:42:45.204Z,10.80
2023-03-19T03:43:48.773Z,10.80
2023-03-19T03:44:52.204Z,10.90
2023-03-19T03:45:55.496Z,10.80
2023-03-19T03:46:57.616Z,10.90
2023-03-19T03:48:00.656Z,10.90
2023-03-19T03:49:03.962Z,10.90
2023-03-19T03:50:07.256Z,10.90
2023-03-19T03:51:10.356Z,10.90
2023-03-19T03:52:13.022Z,10.90
2023-03-19T03:53:16.872Z,10.90
2023-03-19T03:54:18.986Z,10.90
2023-03-19T03:55:22.102Z,10.90
2023-03-19T03:56:24.208Z,11.00
2023-03-19T03:57:27.842Z,11.00
2023-03-19T03:58:31.654Z,11.00
2023-03-19T03:59:34.832Z,11.00
2023-03-19T04:00:38.462Z,11.00
2023-03-19T04:01:41.713Z,11.00
2023-03-19T04:02:43.887Z,11.00
2023-03-19T04:03:51.053Z,11.00
2023-03-19T04:04:53.428Z,11.00
2023-03-19T04:05:56.716Z,11.00
2023-03-19T04:06:58.918Z,11.00
2023-03-19T04:08:22.572Z,11.00
2023-03-19T04:09:26.310Z,11.00
2023-03-19T04:10:30.269Z,11.00
2023-03-19T04:11:32.373Z,11.00
2023-03-19T04:12:35.575Z,10.90
2023-03-19T04:13:38.261Z,10.90
2023-03-19T04:14:42.366Z,10.90
2023-03-19T04:15:46.603Z,10.90
2023-03-19T04:16:50.143Z,10.90
2023-03-19T04:17:52.303Z,10.90
2023-03-19T04:18:55.683Z,10.90
2023-03-19T04:19:57.709Z,10.90
2023-03-19T04:21:01.445Z,10.90
2023-03-19T04:22:03.814Z,10.90
2023-03-19T04:23:08.367Z,10.90
2023-03-19T04:24:10.562Z,10.90
2023-03-19T04:25:13.713Z,10.90
2023-03-19T04:26:16.131Z,10.90
2023-03-19T04:27:19.319Z,10.90
2023-03-19T04:28:21.918Z,10.90
2023-03-19T04:29:25.492Z,10.90
2023-03-19T04:30:27.736Z,10.80
2023-03-19T04:31:33.257Z,10.90
2023-03-19T04:32:35.621Z,10.90
2023-03-19T04:33:38.997Z,10.90
2023-03-19T04:34:41.849Z,10.90
2023-03-19T04:35:44.950Z,10.90
2023-03-19T04:36:48.930Z,10.90
2023-03-19T04:37:51.671Z,10.90
2023-03-19T04:38:56.873Z,10.90
2023-03-19T04:39:59.497Z,10.90
2023-03-19T04:41:04.175Z,10.90
2023-03-19T04:42:08.749Z,10.90
2023-03-19T04:43:18.655Z,10.90
2023-03-19T04:44:21.796Z,10.80
2023-03-19T04:45:25.181Z,10.80
2023-03-19T04:46:27.367Z,10.80
2023-03-19T04:47:31.900Z,10.80
2023-03-19T04:48:36.398Z,10.70
2023-03-19T04:49:39.497Z,10.70
2023-03-19T04:50:41.654Z,10.70
2023-03-19T04:51:44.927Z,10.70
2023-03-19T04:52:47.239Z,10.70
2023-03-19T04:53:51.447Z,10.60
2023-03-19T04:54:53.559Z,10.60
2023-03-19T04:55:57.244Z,10.60
2023-03-19T04:56:59.533Z,10.60
2023-03-19T04:58:06.699Z,10.50
2023-03-19T04:59:10.881Z,10.50
2023-03-19T05:00:16.163Z,10.40
2023-03-19T05:01:19.893Z,10.40
2023-03-19T05:02:39.394Z,10.30
2023-03-19T05:03:41.484Z,10.30
2023-03-19T05:04:44.775Z,10.30
2023-03-19T05:05:49.234Z,10.20
2023-03-19T05:06:52.466Z,10.20
2023-03-19T05:07:54.838Z,10.20
2023-03-19T05:08:57.907Z,10.20
2023-03-19T05:10:00.140Z,10.20
2023-03-19T05:11:03.185Z,10.20
2023-03-19T05:12:14.239Z,10.10
2023-03-19T05:13:21.942Z,10.10
2023-03-19T05:14:26.504Z,10.10
2023-03-19T05:15:37.768Z,10.10
2023-03-19T05:16:42.308Z,10.10
2023-03-19T05:17:46.747Z,10.10
2023-03-19T05:18:56.731Z,10.10
2023-03-19T05:20:00.577Z,10.10
2023-03-19T05:21:04.859Z,10.10
2023-03-19T05:22:07.985Z,10.10
2023-03-19T05:23:10.161Z,10.10
2023-03-19T05:24:18.418Z,10.10
2023-03-19T05:25:20.857Z,10.00
2023-03-19T05:26:24.209Z,10.00
2023-03-19T05:27:58.642Z,10.00
2023-03-19T05:29:03.456Z,9.90
2023-03-19T05:30:14.890Z,9.90
2023-03-19T05:31:30.489Z,9.90
2023-03-19T05:32:32.770Z,9.90
2023-03-19T05:33:40.320Z,9.90
2023-03-19T05:34:43.308Z,9.90
2023-03-19T05:35:47.025Z,9.90
2023-03-19T05:36:56.426Z,9.90
2023-03-19T05:38:00.360Z,9.90
2023-03-19T05:39:03.720Z,9.90
2023-03-19T05:40:12.314Z,9.90
2023-03-19T05:41:16.269Z,9.90
2023-03-19T05:42:29.828Z,9.90
2023-03-19T05:43:33.965Z,9.90
2023-03-19T05:44:40.884Z,9.90
2023-03-19T05:45:56.810Z,9.90
2023-03-19T05:47:03.970Z,9.90
2023-03-19T05:48:09.714Z,9.90
2023-03-19T05:49:18.386Z,9.90
2023-03-19T05:50:20.666Z,9.90
2023-03-19T05:51:44.416Z,9.80
2023-03-19T05:52:47.248Z,9.80
2023-03-19T05:53:50.248Z,9.90
2023-03-19T05:55:08.528Z,9.90
2023-03-19T05:56:19.106Z,9.80
2023-03-19T05:58:00.154Z,9.80
2023-03-19T05:59:02.666Z,9.80
2023-03-19T06:00:13.843Z,9.70
2023-03-19T06:01:18.539Z,9.70
2023-03-19T06:02:22.084Z,9.70
2023-03-19T06:03:28.145Z,9.70
2023-03-19T06:04:34.305Z,9.70
2023-03-19T06:05:36.586Z,9.70
2023-03-19T06:06:55.601Z,9.60
2023-03-19T06:07:57.684Z,9.60
2023-03-19T06:09:23.425Z,9.60
2023-03-19T06:10:30.233Z,9.50
2023-03-19T06:11:35.589Z,9.50
2023-03-19T06:12:57.784Z,9.50
2023-03-19T06:14:16.119Z,9.40
2023-03-19T06:15:27.319Z,9.40
2023-03-19T06:16:38.596Z,9.40
2023-03-19T06:17:41.866Z,9.30
2023-03-19T06:18:47.021Z,9.30
2023-03-19T06:19:52.917Z,9.20
2023-03-19T06:20:54.989Z,9.20
2023-03-19T06:21:58.043Z,9.20
2023-03-19T06:23:00.187Z,9.30
2023-03-19T06:24:03.834Z,9.30
2023-03-19T06:25:10.281Z,9.30
2023-03-19T06:26:14.318Z,9.30
2023-03-19T06:27:21.741Z,9.30
2023-03-19T06:28:24.780Z,9.30
2023-03-19T06:29:27.174Z,9.30
2023-03-19T06:30:36.875Z,9.30
2023-03-19T06:31:44.078Z,9.30
2023-03-19T06:33:02.936Z,9.30
2023-03-19T06:34:07.825Z,9.30
2023-03-19T06:35:18.671Z,9.30
2023-03-19T06:36:23.665Z,9.40
2023-03-19T06:37:26.917Z,9.40
2023-03-19T06:38:29.149Z,9.40
2023-03-19T06:39:33.044Z,9.50
2023-03-19T06:40:35.557Z,9.50
2023-03-19T06:41:38.884Z,9.60
2023-03-19T06:42:50.045Z,9.80
2023-03-19T06:43:52.353Z,9.90
2023-03-19T06:44:55.380Z,10.10
2023-03-19T06:45:57.538Z,10.30
2023-03-19T06:47:00.562Z,10.50
2023-03-19T06:48:02.948Z,10.60
2023-03-19T06:49:06.914Z,10.60
2023-03-19T06:50:10.013Z,10.70
2023-03-19T06:51:14.563Z,10.70
2023-03-19T06:52:18.329Z,10.80
2023-03-19T06:53:21.000Z,10.80
2023-03-19T06:54:24.252Z,10.90
2023-03-19T06:55:27.266Z,10.90
2023-03-19T06:56:29.517Z,10.90
2023-03-19T06:57:32.659Z,10.90
2023-03-19T06:58:35.740Z,11.00
2023-03-19T06:59:38.783Z,11.00
2023-03-19T07:00:41.346Z,11.20
2023-03-19T07:01:44.423Z,11.40
2023-03-19T07:02:46.497Z,11.60
2023-03-19T07:03:49.543Z,11.70
2023-03-19T07:04:52.322Z,11.80
2023-03-19T07:05:55.693Z,12.00
2023-03-19T07:06:59.099Z,12.10
2023-03-19T07:08:02.695Z,12.40
2023-03-19T07:09:05.058Z,12.70
2023-03-19T07:10:08.720Z,13.40
2023-03-19T07:11:11.175Z,14.40
2023-03-19T07:12:14.436Z,14.80
2023-03-19T07:13:17.431Z,15.30
2023-03-19T07:14:20.532Z,15.80
2023-03-19T07:15:22.587Z,16.40
2023-03-19T07:16:25.741Z,17.30
2023-03-19T07:17:27.963Z,17.60
2023-03-19T07:18:31.035Z,17.70
2023-03-19T07:19:34.019Z,17.90
2023-03-19T07:20:36.564Z,18.10
2023-03-19T07:21:39.872Z,17.80
2023-03-19T07:22:43.368Z,17.50
2023-03-19T07:23:47.319Z,17.10
2023-03-19T07:24:49.540Z,16.70
2023-03-19T07:25:52.789Z,16.40
2023-03-19T07:26:54.810Z,16.20
2023-03-19T07:27:57.795Z,16.10
2023-03-19T07:28:59.912Z,15.90
2023-03-19T07:30:03.268Z,15.80
2023-03-19T07:31:05.665Z,15.60
2023-03-19T07:32:10.358Z,15.50
2023-03-19T07:33:12.478Z,15.20
2023-03-19T07:34:15.540Z,15.00
2023-03-19T07:35:17.812Z,14.80
2023-03-19T07:36:21.806Z,14.70
2023-03-19T07:37:23.864Z,14.60
2023-03-19T07:38:28.414Z,14.50
2023-03-19T07:39:30.682Z,14.50
2023-03-19T07:40:33.928Z,14.50
2023-03-19T07:41:37.903Z,14.70
2023-03-19T07:42:40.496Z,14.90
2023-03-19T07:43:43.608Z,15.40
2023-03-19T07:44:45.747Z,15.60
2023-03-19T07:45:48.738Z,15.90
2023-03-19T07:46:52.133Z,15.90
2023-03-19T07:47:54.224Z,15.90
2023-03-19T07:48:57.250Z,16.20
2023-03-19T07:49:59.290Z,16.80
2023-03-19T07:51:02.564Z,17.10
2023-03-19T07:52:05.019Z,17.20
2023-03-19T07:53:08.029Z,17.40
2023-03-19T07:54:11.438Z,17.40
2023-03-19T07:55:14.466Z,17.30
2023-03-19T07:56:17.534Z,17.50
2023-03-19T07:57:19.615Z,17.90
2023-03-19T07:58:22.958Z,17.80
2023-03-19T07:59:25.970Z,17.60
2023-03-19T08:00:28.252Z,17.40
2023-03-19T08:01:31.456Z,17.70
2023-03-19T08:02:33.576Z,17.70
2023-03-19T08:03:36.620Z,17.70
2023-03-19T08:04:39.376Z,17.90
2023-03-19T08:05:42.742Z,18.20
2023-03-19T08:06:44.829Z,18.00
2023-03-19T08:07:49.453Z,17.90
2023-03-19T08:08:51.556Z,17.80
2023-03-19T08:09:57.488Z,17.70
2023-03-19T08:10:59.711Z,17.60
2023-03-19T08:12:02.882Z,17.70
2023-03-19T08:13:06.824Z,18.00
2023-03-19T08:14:09.068Z,18.30
2023-03-19T08:15:12.818Z,18.60
2023-03-19T08:16:15.834Z,18.80
2023-03-19T08:17:18.220Z,18.80
2023-03-19T08:18:21.441Z,18.90
2023-03-19T08:19:23.492Z,19.10
2023-03-19T08:20:26.526Z,19.10
2023-03-19T08:21:29.742Z,19.30
2023-03-19T08:22:32.913Z,19.20
2023-03-19T08:23:36.332Z,19.00
2023-03-19T08:24:38.424Z,18.80
2023-03-19T08:25:43.134Z,18.90
2023-03-19T08:26:45.468Z,19.30
2023-03-19T08:27:48.971Z,19.40
2023-03-19T08:28:52.348Z,19.40
2023-03-19T08:29:55.386Z,19.60
2023-03-19T08:30:58.541Z,19.50
2023-03-19T08:32:01.268Z,19.60
2023-03-19T08:33:04.548Z,19.60
2023-03-19T08:34:10.282Z,19.80
2023-03-19T08:35:14.078Z,20.00
2023-03-19T08:36:17.546Z,20.00
2023-03-19T08:37:19.671Z,19.70
2023-03-19T08:38:22.658Z,19.60
2023-03-19T08:39:25.265Z,19.20
2023-03-19T08:40:28.493Z,18.80
2023-03-19T08:41:32.043Z,18.40
2023-03-19T08:42:35.325Z,18.30
2023-03-19T08:43:38.069Z,18.10
2023-03-19T08:44:41.088Z,18.50
2023-03-19T08:45:44.354Z,19.00
2023-03-19T08:46:46.447Z,19.30
2023-03-19T08:47:50.245Z,19.50
2023-03-19T08:48:53.256Z,19.40
2023-03-19T08:49:55.825Z,19.40
2023-03-19T08:51:00.691Z,19.40
2023-03-19T08:52:03.186Z,19.50
2023-03-19T08:53:06.227Z,19.70
2023-03-19T08:54:09.444Z,19.70
2023-03-19T08:55:12.528Z,19.60
2023-03-19T08:56:14.566Z,19.60
2023-03-19T08:57:18.941Z,19.70
2023-03-19T08:58:21.446Z,19.60
2023-03-19T08:59:24.528Z,19.50
2023-03-19T09:00:27.868Z,19.40
2023-03-19T09:01:30.336Z,19.20
2023-03-19T09:02:33.379Z,18.80
2023-03-19T09:03:36.629Z,18.50
2023-03-19T09:04:41.126Z,18.20
2023-03-19T09:05:44.806Z,18.20
2023-03-19T09:06:51.130Z,18.20
2023-03-19T09:07:53.206Z,18.10
2023-03-19T09:08:56.390Z,17.90
2023-03-19T09:09:58.744Z,17.70
2023-03-19T09:11:02.259Z,17.50
2023-03-19T09:12:04.721Z,17.40
2023-03-19T09:13:09.233Z,17.20
2023-03-19T09:14:12.093Z,16.90
2023-03-19T09:15:15.316Z,16.70
2023-03-19T09:16:18.619Z,16.50
2023-03-19T09:17:20.694Z,16.40
2023-03-19T09:18:25.500Z,16.40
2023-03-19T09:19:27.996Z,16.40
2023-03-19T09:20:31.184Z,16.40
2023-03-19T09:21:33.342Z,16.50
2023-03-19T09:22:36.717Z,16.50
2023-03-19T09:23:39.813Z,16.50
2023-03-19T09:24:42.032Z,16.60
2023-03-19T09:25:45.716Z,16.70
2023-03-19T09:26:47.853Z,16.60
2023-03-19T09:27:50.865Z,16.70
2023-03-19T09:28:54.368Z,16.60
2023-03-19T09:29:57.363Z,16.70
2023-03-19T09:30:59.463Z,16.80
2023-03-19T09:32:02.725Z,16.80
2023-03-19T09:33:05.761Z,16.80
2023-03-19T09:34:08.838Z,16.90
2023-03-19T09:35:11.415Z,16.80
2023-03-19T09:36:14.559Z,16.90
2023-03-19T09:37:17.818Z,17.00
2023-03-19T09:38:21.604Z,17.20
2023-03-19T09:39:24.619Z,17.30
2023-03-19T09:40:29.809Z,17.20
2023-03-19T09:41:41.364Z,17.20
2023-03-19T09:42:56.938Z,17.20
2023-03-19T09:44:03.125Z,17.20
2023-03-19T09:45:13.765Z,17.40
2023-03-19T09:46:22.766Z,17.50
2023-03-19T09:47:28.867Z,17.50
2023-03-19T09:48:38.584Z,17.20
2023-03-19T09:49:44.990Z,17.00
2023-03-19T09:50:50.042Z,16.90
2023-03-19T09:51:54.815Z,16.70
2023-03-19T09:53:02.791Z,16.70
2023-03-19T09:54:13.900Z,16.70
2023-03-19T09:55:29.202Z,16.70
2023-03-19T09:56:33.359Z,16.70
2023-03-19T09:57:38.136Z,16.60
2023-03-19T09:58:40.651Z,16.70
2023-03-19T09:59:45.391Z,16.80
2023-03-19T10:00:51.769Z,16.80
2023-03-19T10:02:01.254Z,16.70
2023-03-19T10:03:13.266Z,16.60
2023-03-19T10:04:49.820Z,16.80
2023-03-19T10:06:01.484Z,16.90
2023-03-19T10:07:15.591Z,16.90
2023-03-19T10:08:42.644Z,16.80
2023-03-19T10:09:56.279Z,16.80
2023-03-19T10:11:17.114Z,17.00
2023-03-19T10:12:32.412Z,17.00
2023-03-19T10:13:46.505Z,17.00
2023-03-19T10:15:11.412Z,16.90
2023-03-19T10:16:20.413Z,16.90
2023-03-19T10:17:28.552Z,16.80
2023-03-19T10:18:34.837Z,16.70
2023-03-19T10:19:45.765Z,16.60
2023-03-19T10:20:53.539Z,16.50
2023-03-19T10:22:00.770Z,16.40
2023-03-19T10:23:20.045Z,16.30
2023-03-19T10:24:27.687Z,16.00
2023-03-19T10:25:42.435Z,16.00
2023-03-19T10:26:47.342Z,15.90
2023-03-19T10:27:56.004Z,15.90
2023-03-19T10:29:06.569Z,16.00
2023-03-19T10:30:18.091Z,15.90
2023-03-19T10:31:28.351Z,15.80
2023-03-19T10:32:40.173Z,15.90
2023-03-19T10:33:46.024Z,15.90
2023-03-19T10:34:50.965Z,15.90
2023-03-19T10:35:58.779Z,15.80
2023-03-19T10:37:04.670Z,15.70
2023-03-19T10:38:29.187Z,15.80
2023-03-19T10:39:34.079Z,15.70
2023-03-19T10:40:45.886Z,15.70
2023-03-19T10:41:55.499Z,15.70
2023-03-19T10:43:07.240Z,15.80
2023-03-19T10:44:19.865Z,15.90
2023-03-19T10:45:28.191Z,16.10
2023-03-19T10:46:38.013Z,16.20
2023-03-19T10:47:44.152Z,16.20
2023-03-19T10:48:47.984Z,16.30
2023-03-19T10:49:50.869Z,16.60
2023-03-19T10:50:57.798Z,16.80
2023-03-19T10:51:59.951Z,17.00
2023-03-19T10:53:08.304Z,16.90
2023-03-19T10:54:22.045Z,17.00
2023-03-19T10:55:27.345Z,17.00
2023-03-19T10:56:34.885Z,17.20
2023-03-19T10:57:36.872Z,17.40
2023-03-19T10:58:40.404Z,17.50
2023-03-19T10:59:47.241Z,17.60
2023-03-19T11:00:58.063Z,17.70
2023-03-19T11:02:15.244Z,17.90
2023-03-19T11:03:30.512Z,17.80
2023-03-19T11:04:33.714Z,18.00
2023-03-19T11:05:37.084Z,18.10
2023-03-19T11:06:39.883Z,18.10
2023-03-19T11:07:43.038Z,17.90
2023-03-19T11:08:55.332Z,17.70
2023-03-19T11:09:58.425Z,17.50
2023-03-19T11:11:00.653Z,17.30
2023-03-19T11:12:09.556Z,17.50
2023-03-19T11:13:22.941Z,17.60
2023-03-19T11:14:30.608Z,17.90
2023-03-19T11:15:36.999Z,18.00
2023-03-19T11:16:56.224Z,18.10
2023-03-19T11:18:00.771Z,18.30
2023-03-19T11:19:02.938Z,18.40
2023-03-19T11:20:22.499Z,18.50
2023-03-19T11:21:29.538Z,18.50
2023-03-19T11:22:34.572Z,18.70
2023-03-19T11:23:40.357Z,18.80
2023-03-19T11:24:50.589Z,19.00
2023-03-19T11:25:55.318Z,19.10
2023-03-19T11:26:58.311Z,19.20
2023-03-19T11:28:03.565Z,19.10
2023-03-19T11:29:07.852Z,19.10
2023-03-19T11:30:17.124Z,19.20
2023-03-19T11:31:28.923Z,19.20
2023-03-19T11:33:05.602Z,19.00
2023-03-19T11:34:19.986Z,18.60
2023-03-19T11:35:26.435Z,18.10
2023-03-19T11:36:32.244Z,18.00
2023-03-19T11:37:50.813Z,17.90
2023-03-19T11:39:04.672Z,17.70
2023-03-19T11:40:15.859Z,17.70
2023-03-19T11:41:29.255Z,17.70
2023-03-19T11:42:54.457Z,17.50
2023-03-19T11:44:02.065Z,17.60
2023-03-19T11:45:16.241Z,17.70
2023-03-19T11:46:33.270Z,17.70
2023-03-19T11:47:44.337Z,17.80
2023-03-19T11:49:13.103Z,17.90
2023-03-19T11:50:22.168Z,18.20
2023-03-19T11:51:32.497Z,18.40
2023-03-19T11:52:42.394Z,18.40
2023-03-19T11:53:56.940Z,18.50
2023-03-19T11:55:13.386Z,18.30
2023-03-19T11:56:22.797Z,18.10
2023-03-19T11:57:39.556Z,17.90
2023-03-19T11:59:16.497Z,17.60
2023-03-19T12:00:32.230Z,17.40
2023-03-19T12:01:56.739Z,17.30
2023-03-19T12:03:37.109Z,17.30
2023-03-19T12:05:06.494Z,17.10
2023-03-19T12:06:18.275Z,17.20
2023-03-19T12:07:27.974Z,17.20
2023-03-19T12:08:36.134Z,17.20
2023-03-19T12:09:47.146Z,17.30
2023-03-19T12:10:59.285Z,17.40
2023-03-19T12:12:13.123Z,17.60
2023-03-19T12:13:31.087Z,17.80
2023-03-19T12:14:51.390Z,17.90
2023-03-19T12:16:07.312Z,18.00
2023-03-19T12:17:37.418Z,18.10
2023-03-19T12:19:11.577Z,18.20
2023-03-19T12:20:38.232Z,18.40
2023-03-19T12:21:50.885Z,18.20
2023-03-19T12:23:06.812Z,18.20
2023-03-19T12:24:19.981Z,18.00
2023-03-19T12:25:35.746Z,17.80
2023-03-19T12:26:53.596Z,17.60
2023-03-19T12:28:02.007Z,17.60
2023-03-19T12:29:16.723Z,17.60
2023-03-19T12:30:29.104Z,17.60
2023-03-19T12:31:58.250Z,17.50
2023-03-19T12:33:15.773Z,17.50
2023-03-19T12:34:30.687Z,17.40
2023-03-19T12:35:35.450Z,17.30
2023-03-19T12:36:44.145Z,17.10
2023-03-19T12:37:57.957Z,16.90
2023-03-19T12:39:05.286Z,16.80
2023-03-19T12:40:21.823Z,16.70
2023-03-19T12:41:28.259Z,16.60
2023-03-19T12:42:40.983Z,16.60
2023-03-19T12:43:50.290Z,16.60
2023-03-19T12:44:57.880Z,16.40
2023-03-19T12:46:07.040Z,16.30
2023-03-19T12:47:14.007Z,16.20
2023-03-19T12:48:21.769Z,16.20
2023-03-19T12:49:31.586Z,16.20
2023-03-19T12:50:37.946Z,16.10
2023-03-19T12:51:45.485Z,15.90
2023-03-19T12:52:50.878Z,15.80
2023-03-19T12:53:58.010Z,15.70
2023-03-19T12:55:05.893Z,15.60
2023-03-19T12:56:14.776Z,15.60
2023-03-19T12:57:22.571Z,15.40
2023-03-19T12:58:33.107Z,15.40
2023-03-19T12:59:40.444Z,15.30
2023-03-19T13:00:51.646Z,15.20
2023-03-19T13:01:59.523Z,15.10
2023-03-19T13:03:08.496Z,15.10
2023-03-19T13:04:14.583Z,15.10
2023-03-19T13:05:26.209Z,15.00
2023-03-19T13:06:35.384Z,15.00
2023-03-19T13:07:48.806Z,15.00
2023-03-19T13:08:57.826Z,15.00
2023-03-19T13:10:06.797Z,15.00
2023-03-19T13:11:13.666Z,15.00
2023-03-19T13:12:21.332Z,15.10
2023-03-19T13:13:36.445Z,15.20
2023-03-19T13:14:51.089Z,15.20
2023-03-19T13:15:58.641Z,15.20
2023-03-19T13:17:07.697Z,15.30
2023-03-19T13:18:21.701Z,15.40
2023-03-19T13:19:31.117Z,15.50
2023-03-19T13:20:52.268Z,15.60
2023-03-19T13:22:00.047Z,15.70
2023-03-19T13:23:04.186Z,15.80
2023-03-19T13:24:15.483Z,15.80
2023-03-19T13:25:23.873Z,15.90
2023-03-19T13:26:28.189Z,16.00
2023-03-19T13:27:33.376Z,16.00
2023-03-19T13:28:37.973Z,16.00
2023-03-19T13:30:01.959Z,16.00
2023-03-19T13:31:07.064Z,16.10
2023-03-19T13:32:24.975Z,16.20
2023-03-19T13:33:28.689Z,16.30
2023-03-19T13:34:35.171Z,16.40
2023-03-19T13:35:44.611Z,16.40
2023-03-19T13:36:53.900Z,16.40
2023-03-19T13:38:00.297Z,16.30
2023-03-19T13:39:03.495Z,16.30
2023-03-19T13:40:06.677Z,16.40
2023-03-19T13:41:43.142Z,16.40
2023-03-19T13:42:46.244Z,16.70
2023-03-19T13:43:55.392Z,16.80
2023-03-19T13:45:04.404Z,16.80
2023-03-19T13:46:30.993Z,16.90
2023-03-19T13:47:44.081Z,17.00
2023-03-19T13:48:51.970Z,17.00
2023-03-19T13:50:21.686Z,16.80
2023-03-19T13:51:29.643Z,16.60
2023-03-19T13:53:13.224Z,16.50
2023-03-19T13:54:18.360Z,16.30
2023-03-19T13:55:34.434Z,16.10
2023-03-19T13:57:06.751Z,15.90
2023-03-19T13:58:37.978Z,15.70
2023-03-19T13:59:44.955Z,15.20
2023-03-19T14:00:58.150Z,14.70
2023-03-19T14:02:01.961Z,14.30
2023-03-19T14:03:06.263Z,14.10
2023-03-19T14:04:21.972Z,14.00
2023-03-19T14:05:24.083Z,13.80
2023-03-19T14:06:39.655Z,13.70
2023-03-19T14:07:44.702Z,13.70
2023-03-19T14:08:48.149Z,13.70
2023-03-19T14:10:04.919Z,13.70
2023-03-19T14:11:08.707Z,13.70
2023-03-19T14:12:31.320Z,13.90
2023-03-19T14:13:38.922Z,14.00
2023-03-19T14:14:44.085Z,14.20
2023-03-19T14:15:51.675Z,14.40
2023-03-19T14:16:53.907Z,14.60
2023-03-19T14:18:00.525Z,14.90
2023-03-19T14:19:09.707Z,15.30
2023-03-19T14:20:32.825Z,15.60
2023-03-19T14:21:47.138Z,15.80
2023-03-19T14:23:04.821Z,16.00
2023-03-19T14:26:01.303Z,16.20